sensor_id;sensor_type;location;lat;lon;timestamp;P1;durP1;ratioP1;P2;durP2;ratioP2
10831;SDS011;5469;48.574;8.768;2023-05-09T00:01:08;2.10;;;1.90;;
10831;SDS011;5469;48.574;8.768;2023-05-09T00:03:43;2.13;;;1.63;;
10831;SDS011;5469;48.574;8.768;2023-05-09T00:06:16;3.10;;;2.10;;
10831;SDS011;5469;48.574;8.768;2023-05-09T00:08:50;3.43;;;1.87;;
10831;SDS011;5469;48.574;8.768;2023-05-09T00:11:23;2.23;;;1.90;;
10831;SDS011;5469;48.574;8.768;2023-05-09T00:13:57;2.60;;;2.07;;
10831;SDS011;5469;48.574;8.768;2023-05-09T00:16:32;2.10;;;1.90;;
10831;SDS011;5469;48.574;8.768;2023-05-09T00:19:07;1.80;;;1.60;;
10831;SDS011;5469;48.574;8.768;2023-05-09T00:21:40;2.17;;;1.70;;
10831;SDS011;5469;48.574;8.768;2023-05-09T00:24:13;1.90;;;1.67;;
10831;SDS011;5469;48.574;8.768;2023-05-09T00:26:47;1.80;;;1.40;;
10831;SDS011;5469;48.574;8.768;2023-05-09T00:29:20;2.10;;;1.30;;
10831;SDS011;5469;48.574;8.768;2023-05-09T00:31:55;1.20;;;1.10;;
10831;SDS011;5469;48.574;8.768;2023-05-09T00:34:28;2.40;;;1.20;;
10831;SDS011;5469;48.574;8.768;2023-05-09T00:37:02;1.20;;;1.10;;
10831;SDS011;5469;48.574;8.768;2023-05-09T00:39:35;1.37;;;1.23;;
10831;SDS011;5469;48.574;8.768;2023-05-09T00:42:08;1.47;;;1.20;;
10831;SDS011;5469;48.574;8.768;2023-05-09T00:44:42;1.23;;;1.13;;
10831;SDS011;5469;48.574;8.768;2023-05-09T00:47:16;0.97;;;0.93;;
10831;SDS011;5469;48.574;8.768;2023-05-09T00:49:50;1.10;;;1.00;;
10831;SDS011;5469;48.574;8.768;2023-05-09T00:52:23;1.83;;;1.40;;
10831;SDS011;5469;48.574;8.768;2023-05-09T00:54:57;1.67;;;1.50;;
10831;SDS011;5469;48.574;8.768;2023-05-09T00:57:31;1.67;;;1.37;;
10831;SDS011;5469;48.574;8.768;2023-05-09T01:00:05;2.20;;;1.60;;
10831;SDS011;5469;48.574;8.768;2023-05-09T01:02:45;1.57;;;1.40;;
10831;SDS011;5469;48.574;8.768;2023-05-09T01:05:21;1.37;;;1.27;;
10831;SDS011;5469;48.574;8.768;2023-05-09T01:07:59;2.03;;;1.50;;
10831;SDS011;5469;48.574;8.768;2023-05-09T01:10:42;2.17;;;1.63;;
10831;SDS011;5469;48.574;8.768;2023-05-09T01:13:23;1.83;;;1.53;;
10831;SDS011;5469;48.574;8.768;2023-05-09T01:16:00;2.17;;;1.90;;
10831;SDS011;5469;48.574;8.768;2023-05-09T01:18:42;1.90;;;1.53;;
10831;SDS011;5469;48.574;8.768;2023-05-09T01:21:19;2.33;;;1.93;;
10831;SDS011;5469;48.574;8.768;2023-05-09T01:24:13;1.20;;;1.10;;
10831;SDS011;5469;48.574;8.768;2023-05-09T01:27:03;1.20;;;1.10;;
10831;SDS011;5469;48.574;8.768;2023-05-09T01:29:55;1.87;;;1.30;;
10831;SDS011;5469;48.574;8.768;2023-05-09T01:32:30;1.93;;;1.50;;
10831;SDS011;5469;48.574;8.768;2023-05-09T01:35:07;1.37;;;1.13;;
10831;SDS011;5469;48.574;8.768;2023-05-09T01:37:44;1.97;;;1.60;;
10831;SDS011;5469;48.574;8.768;2023-05-09T01:40:21;4.10;;;1.67;;
10831;SDS011;5469;48.574;8.768;2023-05-09T01:42:58;1.70;;;1.60;;
10831;SDS011;5469;48.574;8.768;2023-05-09T01:45:36;1.17;;;1.07;;
10831;SDS011;5469;48.574;8.768;2023-05-09T01:48:11;1.50;;;1.40;;
10831;SDS011;5469;48.574;8.768;2023-05-09T01:50:46;1.83;;;1.47;;
10831;SDS011;5469;48.574;8.768;2023-05-09T01:53:21;1.50;;;1.40;;
10831;SDS011;5469;48.574;8.768;2023-05-09T01:55:56;1.73;;;1.50;;
10831;SDS011;5469;48.574;8.768;2023-05-09T01:58:31;1.30;;;1.13;;
10831;SDS011;5469;48.574;8.768;2023-05-09T02:01:07;1.33;;;1.17;;
10831;SDS011;5469;48.574;8.768;2023-05-09T02:03:42;2.23;;;1.43;;
10831;SDS011;5469;48.574;8.768;2023-05-09T02:06:17;1.03;;;0.87;;
10831;SDS011;5469;48.574;8.768;2023-05-09T02:08:53;1.43;;;1.33;;
10831;SDS011;5469;48.574;8.768;2023-05-09T02:11:28;1.40;;;1.30;;
10831;SDS011;5469;48.574;8.768;2023-05-09T02:14:01;1.47;;;1.33;;
10831;SDS011;5469;48.574;8.768;2023-05-09T02:16:36;1.67;;;1.57;;
10831;SDS011;5469;48.574;8.768;2023-05-09T02:19:11;2.80;;;1.23;;
10831;SDS011;5469;48.574;8.768;2023-05-09T02:21:44;1.47;;;1.37;;
10831;SDS011;5469;48.574;8.768;2023-05-09T02:24:18;1.60;;;1.47;;
10831;SDS011;5469;48.574;8.768;2023-05-09T02:26:51;1.87;;;1.33;;
10831;SDS011;5469;48.574;8.768;2023-05-09T02:29:26;1.40;;;1.30;;
10831;SDS011;5469;48.574;8.768;2023-05-09T02:32:13;1.47;;;1.30;;
10831;SDS011;5469;48.574;8.768;2023-05-09T02:34:49;2.77;;;1.63;;
10831;SDS011;5469;48.574;8.768;2023-05-09T02:37:24;1.23;;;1.13;;
10831;SDS011;5469;48.574;8.768;2023-05-09T02:39:57;2.03;;;1.40;;
10831;SDS011;5469;48.574;8.768;2023-05-09T02:42:31;1.10;;;1.00;;
10831;SDS011;5469;48.574;8.768;2023-05-09T02:45:05;1.33;;;1.17;;
10831;SDS011;5469;48.574;8.768;2023-05-09T02:47:42;1.50;;;1.37;;
10831;SDS011;5469;48.574;8.768;2023-05-09T02:50:15;1.30;;;1.20;;
10831;SDS011;5469;48.574;8.768;2023-05-09T02:52:48;1.77;;;1.30;;
10831;SDS011;5469;48.574;8.768;2023-05-09T02:55:22;1.30;;;1.20;;
10831;SDS011;5469;48.574;8.768;2023-05-09T02:57:55;1.40;;;1.30;;
10831;SDS011;5469;48.574;8.768;2023-05-09T03:00:28;0.90;;;0.90;;
10831;SDS011;5469;48.574;8.768;2023-05-09T03:03:03;1.40;;;1.30;;
10831;SDS011;5469;48.574;8.768;2023-05-09T03:05:37;1.90;;;1.50;;
10831;SDS011;5469;48.574;8.768;2023-05-09T03:08:10;1.53;;;1.27;;
10831;SDS011;5469;48.574;8.768;2023-05-09T03:10:43;1.10;;;1.00;;
10831;SDS011;5469;48.574;8.768;2023-05-09T03:13:18;1.53;;;1.23;;
10831;SDS011;5469;48.574;8.768;2023-05-09T03:15:51;2.23;;;1.50;;
10831;SDS011;5469;48.574;8.768;2023-05-09T03:18:26;1.33;;;1.23;;
10831;SDS011;5469;48.574;8.768;2023-05-09T03:20:59;1.43;;;1.33;;
10831;SDS011;5469;48.574;8.768;2023-05-09T03:23:33;1.47;;;1.10;;
10831;SDS011;5469;48.574;8.768;2023-05-09T03:26:06;2.70;;;1.33;;
10831;SDS011;5469;48.574;8.768;2023-05-09T03:28:39;1.30;;;1.03;;
10831;SDS011;5469;48.574;8.768;2023-05-09T03:31:13;1.13;;;0.97;;
10831;SDS011;5469;48.574;8.768;2023-05-09T03:33:47;2.40;;;1.30;;
10831;SDS011;5469;48.574;8.768;2023-05-09T03:36:21;1.20;;;0.97;;
10831;SDS011;5469;48.574;8.768;2023-05-09T03:38:55;1.80;;;1.20;;
10831;SDS011;5469;48.574;8.768;2023-05-09T03:41:28;2.13;;;1.00;;
10831;SDS011;5469;48.574;8.768;2023-05-09T03:44:01;1.40;;;1.30;;
10831;SDS011;5469;48.574;8.768;2023-05-09T03:46:35;1.00;;;0.93;;
10831;SDS011;5469;48.574;8.768;2023-05-09T03:49:09;1.27;;;1.10;;
10831;SDS011;5469;48.574;8.768;2023-05-09T03:51:43;1.60;;;1.10;;
10831;SDS011;5469;48.574;8.768;2023-05-09T03:54:16;1.20;;;1.10;;
10831;SDS011;5469;48.574;8.768;2023-05-09T03:56:49;1.30;;;1.20;;
10831;SDS011;5469;48.574;8.768;2023-05-09T03:59:23;1.30;;;1.20;;
10831;SDS011;5469;48.574;8.768;2023-05-09T04:01:56;2.77;;;1.37;;
10831;SDS011;5469;48.574;8.768;2023-05-09T04:04:31;1.10;;;1.03;;
10831;SDS011;5469;48.574;8.768;2023-05-09T04:07:05;1.40;;;1.20;;
10831;SDS011;5469;48.574;8.768;2023-05-09T04:09:38;1.50;;;1.40;;
10831;SDS011;5469;48.574;8.768;2023-05-09T04:12:13;1.33;;;1.23;;
10831;SDS011;5469;48.574;8.768;2023-05-09T04:14:46;1.23;;;1.13;;
10831;SDS011;5469;48.574;8.768;2023-05-09T04:17:19;2.37;;;1.43;;
10831;SDS011;5469;48.574;8.768;2023-05-09T04:19:54;1.23;;;1.13;;
10831;SDS011;5469;48.574;8.768;2023-05-09T04:22:28;1.40;;;1.30;;
10831;SDS011;5469;48.574;8.768;2023-05-09T04:25:01;1.27;;;1.17;;
10831;SDS011;5469;48.574;8.768;2023-05-09T04:27:35;1.23;;;1.13;;
10831;SDS011;5469;48.574;8.768;2023-05-09T04:30:09;1.27;;;1.17;;
10831;SDS011;5469;48.574;8.768;2023-05-09T04:32:43;1.30;;;1.13;;
10831;SDS011;5469;48.574;8.768;2023-05-09T04:35:18;1.50;;;1.33;;
10831;SDS011;5469;48.574;8.768;2023-05-09T04:37:51;1.17;;;1.10;;
10831;SDS011;5469;48.574;8.768;2023-05-09T04:40:28;1.23;;;1.13;;
10831;SDS011;5469;48.574;8.768;2023-05-09T04:43:01;1.00;;;0.80;;
10831;SDS011;5469;48.574;8.768;2023-05-09T04:45:35;1.80;;;0.73;;
10831;SDS011;5469;48.574;8.768;2023-05-09T04:48:08;0.87;;;0.83;;
10831;SDS011;5469;48.574;8.768;2023-05-09T04:50:43;0.80;;;0.80;;
10831;SDS011;5469;48.574;8.768;2023-05-09T04:53:19;0.67;;;0.60;;
10831;SDS011;5469;48.574;8.768;2023-05-09T04:55:52;0.83;;;0.83;;
10831;SDS011;5469;48.574;8.768;2023-05-09T04:58:26;0.80;;;0.80;;
10831;SDS011;5469;48.574;8.768;2023-05-09T05:00:59;0.83;;;0.83;;
10831;SDS011;5469;48.574;8.768;2023-05-09T05:03:32;1.40;;;1.03;;
10831;SDS011;5469;48.574;8.768;2023-05-09T05:06:07;1.10;;;0.80;;
10831;SDS011;5469;48.574;8.768;2023-05-09T05:08:40;1.10;;;1.00;;
10831;SDS011;5469;48.574;8.768;2023-05-09T05:11:14;1.27;;;1.10;;
10831;SDS011;5469;48.574;8.768;2023-05-09T05:13:48;1.17;;;1.07;;
10831;SDS011;5469;48.574;8.768;2023-05-09T05:16:22;1.30;;;0.63;;
10831;SDS011;5469;48.574;8.768;2023-05-09T05:18:55;0.80;;;0.80;;
10831;SDS011;5469;48.574;8.768;2023-05-09T05:21:30;1.10;;;0.90;;
10831;SDS011;5469;48.574;8.768;2023-05-09T05:24:03;0.60;;;0.60;;
10831;SDS011;5469;48.574;8.768;2023-05-09T05:26:37;1.17;;;0.90;;
10831;SDS011;5469;48.574;8.768;2023-05-09T05:29:10;1.13;;;0.70;;
10831;SDS011;5469;48.574;8.768;2023-05-09T05:31:43;0.70;;;0.70;;
10831;SDS011;5469;48.574;8.768;2023-05-09T05:34:17;1.50;;;1.10;;
10831;SDS011;5469;48.574;8.768;2023-05-09T05:36:52;0.83;;;0.70;;
10831;SDS011;5469;48.574;8.768;2023-05-09T05:39:25;0.97;;;0.87;;
10831;SDS011;5469;48.574;8.768;2023-05-09T05:41:58;1.10;;;1.00;;
10831;SDS011;5469;48.574;8.768;2023-05-09T05:44:32;1.10;;;1.00;;
10831;SDS011;5469;48.574;8.768;2023-05-09T05:47:05;0.67;;;0.67;;
10831;SDS011;5469;48.574;8.768;2023-05-09T05:49:38;0.70;;;0.70;;
10831;SDS011;5469;48.574;8.768;2023-05-09T05:52:13;0.73;;;0.73;;
10831;SDS011;5469;48.574;8.768;2023-05-09T05:54:47;0.53;;;0.53;;
10831;SDS011;5469;48.574;8.768;2023-05-09T05:57:20;1.50;;;1.00;;
10831;SDS011;5469;48.574;8.768;2023-05-09T05:59:54;1.53;;;1.20;;
10831;SDS011;5469;48.574;8.768;2023-05-09T06:02:27;1.33;;;1.23;;
10831;SDS011;5469;48.574;8.768;2023-05-09T06:05:01;1.33;;;1.17;;
10831;SDS011;5469;48.574;8.768;2023-05-09T06:07:36;2.23;;;1.50;;
10831;SDS011;5469;48.574;8.768;2023-05-09T06:10:10;1.40;;;1.30;;
10831;SDS011;5469;48.574;8.768;2023-05-09T06:12:44;1.33;;;0.90;;
10831;SDS011;5469;48.574;8.768;2023-05-09T06:15:17;1.47;;;1.00;;
10831;SDS011;5469;48.574;8.768;2023-05-09T06:17:51;1.00;;;1.00;;
10831;SDS011;5469;48.574;8.768;2023-05-09T06:20:25;1.10;;;1.00;;
10831;SDS011;5469;48.574;8.768;2023-05-09T06:23:00;0.83;;;0.83;;
10831;SDS011;5469;48.574;8.768;2023-05-09T06:25:33;2.43;;;0.93;;
10831;SDS011;5469;48.574;8.768;2023-05-09T06:28:07;1.07;;;0.97;;
10831;SDS011;5469;48.574;8.768;2023-05-09T06:30:40;1.97;;;1.20;;
10831;SDS011;5469;48.574;8.768;2023-05-09T06:33:14;1.37;;;1.20;;
10831;SDS011;5469;48.574;8.768;2023-05-09T06:35:47;1.87;;;1.33;;
10831;SDS011;5469;48.574;8.768;2023-05-09T06:38:22;1.97;;;1.30;;
10831;SDS011;5469;48.574;8.768;2023-05-09T06:40:55;1.40;;;1.30;;
10831;SDS011;5469;48.574;8.768;2023-05-09T06:43:28;1.23;;;1.00;;
10831;SDS011;5469;48.574;8.768;2023-05-09T06:46:02;1.60;;;1.40;;
10831;SDS011;5469;48.574;8.768;2023-05-09T06:48:35;2.60;;;1.90;;
10831;SDS011;5469;48.574;8.768;2023-05-09T06:51:09;2.13;;;1.60;;
10831;SDS011;5469;48.574;8.768;2023-05-09T06:53:44;2.10;;;1.90;;
10831;SDS011;5469;48.574;8.768;2023-05-09T06:56:17;3.47;;;2.17;;
10831;SDS011;5469;48.574;8.768;2023-05-09T06:58:53;3.30;;;2.10;;
10831;SDS011;5469;48.574;8.768;2023-05-09T07:01:26;2.23;;;1.83;;
10831;SDS011;5469;48.574;8.768;2023-05-09T07:04:00;2.87;;;2.10;;
10831;SDS011;5469;48.574;8.768;2023-05-09T07:06:33;3.07;;;1.73;;
10831;SDS011;5469;48.574;8.768;2023-05-09T07:09:08;2.97;;;2.50;;
10831;SDS011;5469;48.574;8.768;2023-05-09T07:11:41;3.57;;;2.20;;
10831;SDS011;5469;48.574;8.768;2023-05-09T07:14:15;2.53;;;2.27;;
10831;SDS011;5469;48.574;8.768;2023-05-09T07:16:49;4.00;;;2.27;;
10831;SDS011;5469;48.574;8.768;2023-05-09T07:19:22;2.97;;;2.40;;
10831;SDS011;5469;48.574;8.768;2023-05-09T07:21:55;2.60;;;2.17;;
10831;SDS011;5469;48.574;8.768;2023-05-09T07:24:30;3.20;;;2.40;;
10831;SDS011;5469;48.574;8.768;2023-05-09T07:27:03;2.27;;;2.07;;
10831;SDS011;5469;48.574;8.768;2023-05-09T07:29:37;3.00;;;1.93;;
10831;SDS011;5469;48.574;8.768;2023-05-09T07:32:10;2.00;;;1.67;;
10831;SDS011;5469;48.574;8.768;2023-05-09T07:34:44;2.60;;;2.10;;
10831;SDS011;5469;48.574;8.768;2023-05-09T07:37:17;2.53;;;1.80;;
10831;SDS011;5469;48.574;8.768;2023-05-09T07:39:52;3.50;;;1.57;;
10831;SDS011;5469;48.574;8.768;2023-05-09T07:42:26;1.60;;;1.50;;
10831;SDS011;5469;48.574;8.768;2023-05-09T07:45:00;2.50;;;1.73;;
10831;SDS011;5469;48.574;8.768;2023-05-09T07:47:36;1.70;;;1.60;;
10831;SDS011;5469;48.574;8.768;2023-05-09T07:50:10;2.20;;;1.77;;
10831;SDS011;5469;48.574;8.768;2023-05-09T07:52:43;3.23;;;1.77;;
10831;SDS011;5469;48.574;8.768;2023-05-09T07:55:18;1.70;;;1.57;;
10831;SDS011;5469;48.574;8.768;2023-05-09T07:57:51;1.93;;;1.67;;
10831;SDS011;5469;48.574;8.768;2023-05-09T08:00:25;2.77;;;1.97;;
10831;SDS011;5469;48.574;8.768;2023-05-09T08:02:59;2.10;;;1.77;;
10831;SDS011;5469;48.574;8.768;2023-05-09T08:05:32;2.40;;;1.77;;
10831;SDS011;5469;48.574;8.768;2023-05-09T08:08:06;1.93;;;1.40;;
10831;SDS011;5469;48.574;8.768;2023-05-09T08:10:41;2.60;;;1.60;;
10831;SDS011;5469;48.574;8.768;2023-05-09T08:13:15;3.53;;;1.93;;
10831;SDS011;5469;48.574;8.768;2023-05-09T08:15:49;1.67;;;1.57;;
10831;SDS011;5469;48.574;8.768;2023-05-09T08:18:23;2.70;;;1.77;;
10831;SDS011;5469;48.574;8.768;2023-05-09T08:20:57;1.70;;;1.60;;
10831;SDS011;5469;48.574;8.768;2023-05-09T08:23:31;1.43;;;1.33;;
10831;SDS011;5469;48.574;8.768;2023-05-09T08:26:06;2.13;;;1.40;;
10831;SDS011;5469;48.574;8.768;2023-05-09T08:28:40;1.50;;;1.40;;
10831;SDS011;5469;48.574;8.768;2023-05-09T08:31:13;2.27;;;1.60;;
10831;SDS011;5469;48.574;8.768;2023-05-09T08:33:48;1.40;;;1.30;;
10831;SDS011;5469;48.574;8.768;2023-05-09T08:36:21;1.90;;;1.70;;
10831;SDS011;5469;48.574;8.768;2023-05-09T08:38:55;1.30;;;1.20;;
10831;SDS011;5469;48.574;8.768;2023-05-09T08:41:29;1.70;;;1.37;;
10831;SDS011;5469;48.574;8.768;2023-05-09T08:44:06;2.23;;;1.40;;
10831;SDS011;5469;48.574;8.768;2023-05-09T08:46:41;2.77;;;1.90;;
10831;SDS011;5469;48.574;8.768;2023-05-09T08:49:16;2.07;;;1.80;;
10831;SDS011;5469;48.574;8.768;2023-05-09T08:51:50;1.57;;;1.47;;
10831;SDS011;5469;48.574;8.768;2023-05-09T08:54:24;1.70;;;1.60;;
10831;SDS011;5469;48.574;8.768;2023-05-09T08:56:59;1.40;;;1.30;;
10831;SDS011;5469;48.574;8.768;2023-05-09T08:59:33;1.50;;;1.40;;
10831;SDS011;5469;48.574;8.768;2023-05-09T09:02:08;1.93;;;1.67;;
10831;SDS011;5469;48.574;8.768;2023-05-09T09:04:45;2.10;;;1.50;;
10831;SDS011;5469;48.574;8.768;2023-05-09T09:07:18;1.50;;;1.40;;
10831;SDS011;5469;48.574;8.768;2023-05-09T09:09:52;1.27;;;1.17;;
10831;SDS011;5469;48.574;8.768;2023-05-09T09:12:28;1.50;;;1.40;;
10831;SDS011;5469;48.574;8.768;2023-05-09T09:15:03;1.43;;;1.33;;
10831;SDS011;5469;48.574;8.768;2023-05-09T09:17:40;1.50;;;1.20;;
10831;SDS011;5469;48.574;8.768;2023-05-09T09:20:15;1.03;;;1.00;;
10831;SDS011;5469;48.574;8.768;2023-05-09T09:22:53;1.50;;;1.40;;
10831;SDS011;5469;48.574;8.768;2023-05-09T09:25:30;1.40;;;1.20;;
10831;SDS011;5469;48.574;8.768;2023-05-09T09:28:05;1.23;;;1.03;;
10831;SDS011;5469;48.574;8.768;2023-05-09T09:30:42;1.90;;;1.23;;
10831;SDS011;5469;48.574;8.768;2023-05-09T09:33:19;1.70;;;1.20;;
10831;SDS011;5469;48.574;8.768;2023-05-09T09:35:54;1.70;;;1.33;;
10831;SDS011;5469;48.574;8.768;2023-05-09T09:38:28;1.40;;;1.30;;
10831;SDS011;5469;48.574;8.768;2023-05-09T09:41:12;1.00;;;1.00;;
10831;SDS011;5469;48.574;8.768;2023-05-09T09:43:47;1.20;;;1.10;;
10831;SDS011;5469;48.574;8.768;2023-05-09T09:46:20;1.33;;;1.20;;
10831;SDS011;5469;48.574;8.768;2023-05-09T09:48:53;1.47;;;1.20;;
10831;SDS011;5469;48.574;8.768;2023-05-09T09:51:28;1.43;;;0.93;;
10831;SDS011;5469;48.574;8.768;2023-05-09T09:54:03;1.90;;;1.10;;
10831;SDS011;5469;48.574;8.768;2023-05-09T09:56:40;1.20;;;1.07;;
10831;SDS011;5469;48.574;8.768;2023-05-09T09:59:16;1.43;;;1.07;;
10831;SDS011;5469;48.574;8.768;2023-05-09T10:01:54;1.43;;;1.27;;
10831;SDS011;5469;48.574;8.768;2023-05-09T10:04:33;1.57;;;1.40;;
10831;SDS011;5469;48.574;8.768;2023-05-09T10:07:08;1.40;;;1.30;;
10831;SDS011;5469;48.574;8.768;2023-05-09T10:09:42;0.90;;;0.90;;
10831;SDS011;5469;48.574;8.768;2023-05-09T10:12:16;1.43;;;1.33;;
10831;SDS011;5469;48.574;8.768;2023-05-09T10:14:52;1.10;;;0.90;;
10831;SDS011;5469;48.574;8.768;2023-05-09T10:17:26;3.13;;;1.33;;
10831;SDS011;5469;48.574;8.768;2023-05-09T10:20:03;1.30;;;0.93;;
10831;SDS011;5469;48.574;8.768;2023-05-09T10:22:38;1.10;;;1.00;;
10831;SDS011;5469;48.574;8.768;2023-05-09T10:25:13;1.37;;;1.10;;
10831;SDS011;5469;48.574;8.768;2023-05-09T10:27:51;1.33;;;1.23;;
10831;SDS011;5469;48.574;8.768;2023-05-09T10:30:30;2.60;;;1.20;;
10831;SDS011;5469;48.574;8.768;2023-05-09T10:33:08;2.13;;;1.40;;
10831;SDS011;5469;48.574;8.768;2023-05-09T10:35:44;2.90;;;1.30;;
10831;SDS011;5469;48.574;8.768;2023-05-09T10:38:18;2.13;;;1.00;;
10831;SDS011;5469;48.574;8.768;2023-05-09T10:40:52;1.30;;;1.03;;
10831;SDS011;5469;48.574;8.768;2023-05-09T10:43:26;1.53;;;1.03;;
10831;SDS011;5469;48.574;8.768;2023-05-09T10:46:02;1.50;;;1.27;;
10831;SDS011;5469;48.574;8.768;2023-05-09T10:48:36;2.53;;;1.70;;
10831;SDS011;5469;48.574;8.768;2023-05-09T10:51:09;1.90;;;1.70;;
10831;SDS011;5469;48.574;8.768;2023-05-09T10:53:44;1.33;;;1.23;;
10831;SDS011;5469;48.574;8.768;2023-05-09T10:56:22;2.20;;;1.60;;
10831;SDS011;5469;48.574;8.768;2023-05-09T10:58:58;2.67;;;1.57;;
10831;SDS011;5469;48.574;8.768;2023-05-09T11:01:34;2.43;;;1.53;;
10831;SDS011;5469;48.574;8.768;2023-05-09T11:04:09;1.70;;;1.60;;
10831;SDS011;5469;48.574;8.768;2023-05-09T11:06:45;2.63;;;1.70;;
10831;SDS011;5469;48.574;8.768;2023-05-09T11:09:22;1.93;;;1.67;;
10831;SDS011;5469;48.574;8.768;2023-05-09T11:12:00;2.60;;;1.70;;
10831;SDS011;5469;48.574;8.768;2023-05-09T11:14:41;1.50;;;1.40;;
10831;SDS011;5469;48.574;8.768;2023-05-09T11:17:27;3.00;;;2.00;;
10831;SDS011;5469;48.574;8.768;2023-05-09T11:20:03;2.00;;;1.60;;
10831;SDS011;5469;48.574;8.768;2023-05-09T11:22:38;2.17;;;1.40;;
10831;SDS011;5469;48.574;8.768;2023-05-09T11:25:13;1.77;;;1.53;;
10831;SDS011;5469;48.574;8.768;2023-05-09T11:27:48;1.63;;;1.40;;
10831;SDS011;5469;48.574;8.768;2023-05-09T11:30:22;1.50;;;1.40;;
10831;SDS011;5469;48.574;8.768;2023-05-09T11:33:21;2.40;;;1.40;;
10831;SDS011;5469;48.574;8.768;2023-05-09T11:38:59;1.50;;;1.40;;
10831;SDS011;5469;48.574;8.768;2023-05-09T11:41:40;1.57;;;1.47;;
10831;SDS011;5469;48.574;8.768;2023-05-09T11:44:14;2.10;;;1.47;;
10831;SDS011;5469;48.574;8.768;2023-05-09T11:46:49;1.27;;;1.17;;
10831;SDS011;5469;48.574;8.768;2023-05-09T11:49:23;1.30;;;1.20;;
10831;SDS011;5469;48.574;8.768;2023-05-09T11:51:58;1.57;;;1.00;;
10831;SDS011;5469;48.574;8.768;2023-05-09T11:54:31;1.33;;;1.23;;
10831;SDS011;5469;48.574;8.768;2023-05-09T11:57:05;1.53;;;1.43;;
10831;SDS011;5469;48.574;8.768;2023-05-09T11:59:38;1.37;;;1.20;;
10831;SDS011;5469;48.574;8.768;2023-05-09T12:02:12;1.40;;;1.30;;
10831;SDS011;5469;48.574;8.768;2023-05-09T12:04:47;0.95;;;0.95;;
10831;SDS011;5469;48.574;8.768;2023-05-09T12:07:21;1.95;;;1.25;;
10831;SDS011;5469;48.574;8.768;2023-05-09T12:09:54;1.83;;;1.10;;
10831;SDS011;5469;48.574;8.768;2023-05-09T12:12:28;1.08;;;1.00;;
10831;SDS011;5469;48.574;8.768;2023-05-09T12:15:02;1.33;;;1.20;;
10831;SDS011;5469;48.574;8.768;2023-05-09T12:17:36;1.37;;;1.20;;
10831;SDS011;5469;48.574;8.768;2023-05-09T12:20:11;1.27;;;1.17;;
10831;SDS011;5469;48.574;8.768;2023-05-09T12:22:45;1.30;;;1.20;;
10831;SDS011;5469;48.574;8.768;2023-05-09T12:25:24;3.40;;;1.17;;
10831;SDS011;5469;48.574;8.768;2023-05-09T12:27:58;1.05;;;1.05;;
10831;SDS011;5469;48.574;8.768;2023-05-09T12:30:31;1.52;;;1.42;;
10831;SDS011;5469;48.574;8.768;2023-05-09T12:33:05;1.52;;;1.20;;
10831;SDS011;5469;48.574;8.768;2023-05-09T12:35:45;1.55;;;1.45;;
10831;SDS011;5469;48.574;8.768;2023-05-09T12:38:19;2.15;;;1.25;;
10831;SDS011;5469;48.574;8.768;2023-05-09T12:40:58;1.38;;;1.23;;
10831;SDS011;5469;48.574;8.768;2023-05-09T12:43:32;1.10;;;1.00;;
10831;SDS011;5469;48.574;8.768;2023-05-09T12:46:07;1.23;;;1.10;;
10831;SDS011;5469;48.574;8.768;2023-05-09T12:48:40;1.25;;;1.15;;
10831;SDS011;5469;48.574;8.768;2023-05-09T12:51:18;1.17;;;1.10;;
10831;SDS011;5469;48.574;8.768;2023-05-09T12:53:52;1.05;;;0.90;;
10831;SDS011;5469;48.574;8.768;2023-05-09T12:56:26;1.30;;;1.20;;
10831;SDS011;5469;48.574;8.768;2023-05-09T12:58:59;1.42;;;1.20;;
10831;SDS011;5469;48.574;8.768;2023-05-09T13:01:34;1.30;;;1.20;;
10831;SDS011;5469;48.574;8.768;2023-05-09T13:04:08;1.20;;;1.10;;
10831;SDS011;5469;48.574;8.768;2023-05-09T13:06:47;1.00;;;0.98;;
10831;SDS011;5469;48.574;8.768;2023-05-09T13:09:22;1.38;;;1.10;;
10831;SDS011;5469;48.574;8.768;2023-05-09T13:11:56;0.77;;;0.77;;
10831;SDS011;5469;48.574;8.768;2023-05-09T13:14:30;1.65;;;1.40;;
10831;SDS011;5469;48.574;8.768;2023-05-09T13:17:03;0.65;;;0.65;;
10831;SDS011;5469;48.574;8.768;2023-05-09T13:19:37;0.82;;;0.82;;
10831;SDS011;5469;48.574;8.768;2023-05-09T13:22:12;1.23;;;1.13;;
10831;SDS011;5469;48.574;8.768;2023-05-09T13:24:47;1.00;;;0.95;;
10831;SDS011;5469;48.574;8.768;2023-05-09T13:27:20;0.80;;;0.80;;
10831;SDS011;5469;48.574;8.768;2023-05-09T13:29:53;1.05;;;0.93;;
10831;SDS011;5469;48.574;8.768;2023-05-09T13:32:27;0.82;;;0.82;;
10831;SDS011;5469;48.574;8.768;2023-05-09T13:35:00;0.70;;;0.70;;
10831;SDS011;5469;48.574;8.768;2023-05-09T13:37:35;0.70;;;0.70;;
10831;SDS011;5469;48.574;8.768;2023-05-09T13:40:09;1.63;;;1.02;;
10831;SDS011;5469;48.574;8.768;2023-05-09T13:42:43;0.85;;;0.75;;
10831;SDS011;5469;48.574;8.768;2023-05-09T13:45:16;0.82;;;0.82;;
10831;SDS011;5469;48.574;8.768;2023-05-09T13:47:50;0.80;;;0.80;;
10831;SDS011;5469;48.574;8.768;2023-05-09T13:50:23;1.38;;;1.02;;
10831;SDS011;5469;48.574;8.768;2023-05-09T13:52:58;0.82;;;0.70;;
10831;SDS011;5469;48.574;8.768;2023-05-09T13:55:31;1.02;;;1.00;;
10831;SDS011;5469;48.574;8.768;2023-05-09T13:58:05;0.80;;;0.80;;
10831;SDS011;5469;48.574;8.768;2023-05-09T14:00:38;4.13;;;0.80;;
10831;SDS011;5469;48.574;8.768;2023-05-09T14:03:12;2.42;;;1.10;;
10831;SDS011;5469;48.574;8.768;2023-05-09T14:05:45;1.05;;;0.95;;
10831;SDS011;5469;48.574;8.768;2023-05-09T14:08:21;0.80;;;0.80;;
10831;SDS011;5469;48.574;8.768;2023-05-09T14:10:55;1.05;;;0.80;;
10831;SDS011;5469;48.574;8.768;2023-05-09T14:13:28;1.08;;;0.88;;
10831;SDS011;5469;48.574;8.768;2023-05-09T14:16:03;1.08;;;0.80;;
10831;SDS011;5469;48.574;8.768;2023-05-09T14:18:36;0.52;;;0.52;;
10831;SDS011;5469;48.574;8.768;2023-05-09T14:21:10;0.75;;;0.70;;
10831;SDS011;5469;48.574;8.768;2023-05-09T14:23:45;0.60;;;0.60;;
10831;SDS011;5469;48.574;8.768;2023-05-09T14:26:20;0.80;;;0.80;;
10831;SDS011;5469;48.574;8.768;2023-05-09T14:28:53;1.02;;;0.90;;
10831;SDS011;5469;48.574;8.768;2023-05-09T14:31:27;0.80;;;0.75;;
10831;SDS011;5469;48.574;8.768;2023-05-09T14:34:00;0.65;;;0.65;;
10831;SDS011;5469;48.574;8.768;2023-05-09T14:36:35;0.82;;;0.80;;
10831;SDS011;5469;48.574;8.768;2023-05-09T14:39:10;0.57;;;0.57;;
10831;SDS011;5469;48.574;8.768;2023-05-09T14:41:44;0.80;;;0.80;;
10831;SDS011;5469;48.574;8.768;2023-05-09T14:44:19;1.33;;;0.80;;
10831;SDS011;5469;48.574;8.768;2023-05-09T14:46:54;1.45;;;0.85;;
10831;SDS011;5469;48.574;8.768;2023-05-09T14:49:28;1.05;;;0.90;;
10831;SDS011;5469;48.574;8.768;2023-05-09T14:52:01;1.08;;;0.98;;
10831;SDS011;5469;48.574;8.768;2023-05-09T14:54:36;0.60;;;0.60;;
10831;SDS011;5469;48.574;8.768;2023-05-09T14:57:10;0.57;;;0.57;;
10831;SDS011;5469;48.574;8.768;2023-05-09T14:59:43;0.60;;;0.60;;
10831;SDS011;5469;48.574;8.768;2023-05-09T15:02:17;0.80;;;0.80;;
10831;SDS011;5469;48.574;8.768;2023-05-09T15:04:50;1.20;;;0.90;;
10831;SDS011;5469;48.574;8.768;2023-05-09T15:07:24;0.68;;;0.68;;
10831;SDS011;5469;48.574;8.768;2023-05-09T15:09:59;0.70;;;0.70;;
10831;SDS011;5469;48.574;8.768;2023-05-09T15:12:34;0.82;;;0.82;;
10831;SDS011;5469;48.574;8.768;2023-05-09T15:15:11;0.70;;;0.70;;
10831;SDS011;5469;48.574;8.768;2023-05-09T15:17:45;0.75;;;0.75;;
10831;SDS011;5469;48.574;8.768;2023-05-09T15:20:19;0.52;;;0.52;;
10831;SDS011;5469;48.574;8.768;2023-05-09T15:22:52;1.10;;;0.80;;
10831;SDS011;5469;48.574;8.768;2023-05-09T15:25:27;0.93;;;0.93;;
10831;SDS011;5469;48.574;8.768;2023-05-09T15:28:01;0.98;;;0.73;;
10831;SDS011;5469;48.574;8.768;2023-05-09T15:30:35;2.35;;;1.20;;
10831;SDS011;5469;48.574;8.768;2023-05-09T15:33:11;0.80;;;0.80;;
10831;SDS011;5469;48.574;8.768;2023-05-09T15:35:45;0.70;;;0.70;;
10831;SDS011;5469;48.574;8.768;2023-05-09T15:38:20;0.90;;;0.90;;
10831;SDS011;5469;48.574;8.768;2023-05-09T15:40:55;0.77;;;0.77;;
10831;SDS011;5469;48.574;8.768;2023-05-09T15:43:29;0.80;;;0.80;;
10831;SDS011;5469;48.574;8.768;2023-05-09T15:46:02;0.85;;;0.85;;
10831;SDS011;5469;48.574;8.768;2023-05-09T15:48:36;0.90;;;0.90;;